sensor_id;sensor_type;location;lat;lon;timestamp;pressure;altitude;pressure_sealevel;temperature;humidity
64230;BME280;50547;49.498;0.092;2023-09-07T00:01:44;1012.11;;;24.46;78.64
64230;BME280;50547;49.498;0.092;2023-09-07T00:04:13;1012.05;;;24.50;78.31
64230;BME280;50547;49.498;0.092;2023-09-07T00:06:42;1012.09;;;24.53;78.25
64230;BME280;50547;49.498;0.092;2023-09-07T00:09:11;1012.05;;;24.56;78.12
64230;BME280;50547;49.498;0.092;2023-09-07T00:11:40;1012.07;;;24.59;77.97
64230;BME280;50547;49.498;0.092;2023-09-07T00:14:09;1012.09;;;24.70;77.41
64230;BME280;50547;49.498;0.092;2023-09-07T00:16:39;1012.09;;;24.70;77.53
64230;BME280;50547;49.498;0.092;2023-09-07T00:19:08;1012.09;;;24.71;77.65
64230;BME280;50547;49.498;0.092;2023-09-07T00:21:37;1012.09;;;24.73;77.60
64230;BME280;50547;49.498;0.092;2023-09-07T00:24:06;1012.07;;;24.81;77.12
64230;BME280;50547;49.498;0.092;2023-09-07T00:26:35;1012.03;;;24.84;76.98
64230;BME280;50547;49.498;0.092;2023-09-07T00:29:05;1012.01;;;24.95;76.55
64230;BME280;50547;49.498;0.092;2023-09-07T00:31:34;1012.03;;;25.00;76.29
64230;BME280;50547;49.498;0.092;2023-09-07T00:34:03;1011.91;;;24.97;76.58
64230;BME280;50547;49.498;0.092;2023-09-07T00:36:32;1011.93;;;25.01;76.45
64230;BME280;50547;49.498;0.092;2023-09-07T00:39:01;1011.93;;;25.03;76.36
64230;BME280;50547;49.498;0.092;2023-09-07T00:41:30;1011.95;;;25.00;76.47
64230;BME280;50547;49.498;0.092;2023-09-07T00:43:59;1011.93;;;25.06;76.19
64230;BME280;50547;49.498;0.092;2023-09-07T00:46:28;1011.89;;;25.13;75.83
64230;BME280;50547;49.498;0.092;2023-09-07T00:48:58;1011.89;;;25.12;75.87
64230;BME280;50547;49.498;0.092;2023-09-07T00:51:27;1011.85;;;25.12;75.75
64230;BME280;50547;49.498;0.092;2023-09-07T00:53:56;1011.83;;;25.11;75.78
64230;BME280;50547;49.498;0.092;2023-09-07T00:56:26;1011.83;;;25.13;75.67
64230;BME280;50547;49.498;0.092;2023-09-07T00:58:55;1011.83;;;25.19;75.39
64230;BME280;50547;49.498;0.092;2023-09-07T01:01:25;1011.79;;;25.32;74.84
64230;BME280;50547;49.498;0.092;2023-09-07T01:03:54;1011.77;;;25.26;75.34
64230;BME280;50547;49.498;0.092;2023-09-07T01:06:28;1011.73;;;25.15;76.01
64230;BME280;50547;49.498;0.092;2023-09-07T01:09:03;1011.73;;;25.15;76.02
64230;BME280;50547;49.498;0.092;2023-09-07T01:11:36;1011.69;;;24.95;77.10
64230;BME280;50547;49.498;0.092;2023-09-07T01:14:06;1011.71;;;24.91;77.16
64230;BME280;50547;49.498;0.092;2023-09-07T01:16:35;1011.71;;;24.90;77.02
64230;BME280;50547;49.498;0.092;2023-09-07T01:19:05;1011.73;;;24.86;77.22
64230;BME280;50547;49.498;0.092;2023-09-07T01:21:36;1011.67;;;24.84;77.22
64230;BME280;50547;49.498;0.092;2023-09-07T01:24:07;1011.65;;;24.70;77.91
64230;BME280;50547;49.498;0.092;2023-09-07T01:26:38;1011.64;;;24.67;77.97
64230;BME280;50547;49.498;0.092;2023-09-07T01:29:07;1011.65;;;24.65;78.00
64230;BME280;50547;49.498;0.092;2023-09-07T01:31:36;1011.67;;;24.57;78.27
64230;BME280;50547;49.498;0.092;2023-09-07T01:34:06;1011.64;;;24.51;78.49
64230;BME280;50547;49.498;0.092;2023-09-07T01:36:35;1011.64;;;24.52;78.23
64230;BME280;50547;49.498;0.092;2023-09-07T01:39:05;1011.64;;;24.54;78.05
64230;BME280;50547;49.498;0.092;2023-09-07T01:41:34;1011.64;;;24.49;78.25
64230;BME280;50547;49.498;0.092;2023-09-07T01:44:04;1011.56;;;24.44;78.32
64230;BME280;50547;49.498;0.092;2023-09-07T01:46:33;1011.56;;;24.42;78.33
64230;BME280;50547;49.498;0.092;2023-09-07T01:49:02;1011.62;;;24.35;78.67
64230;BME280;50547;49.498;0.092;2023-09-07T01:51:31;1011.60;;;24.32;77.97
64230;BME280;50547;49.498;0.092;2023-09-07T01:54:00;1011.60;;;24.16;78.49
64230;BME280;50547;49.498;0.092;2023-09-07T01:56:30;1011.62;;;24.05;78.62
64230;BME280;50547;49.498;0.092;2023-09-07T01:58:59;1011.67;;;24.13;78.06
64230;BME280;50547;49.498;0.092;2023-09-07T02:01:30;1011.64;;;24.26;77.80
64230;BME280;50547;49.498;0.092;2023-09-07T02:04:00;1011.65;;;24.40;77.53
64230;BME280;50547;49.498;0.092;2023-09-07T02:06:29;1011.65;;;24.49;77.55
64230;BME280;50547;49.498;0.092;2023-09-07T02:08:58;1011.67;;;24.65;77.13
64230;BME280;50547;49.498;0.092;2023-09-07T02:11:27;1011.67;;;24.81;76.53
64230;BME280;50547;49.498;0.092;2023-09-07T02:13:56;1011.67;;;24.82;76.76
64230;BME280;50547;49.498;0.092;2023-09-07T02:16:25;1011.65;;;24.85;76.74
64230;BME280;50547;49.498;0.092;2023-09-07T02:19:02;1011.65;;;24.67;77.71
64230;BME280;50547;49.498;0.092;2023-09-07T02:21:32;1011.64;;;24.49;78.59
64230;BME280;50547;49.498;0.092;2023-09-07T02:24:01;1011.64;;;24.44;79.00
64230;BME280;50547;49.498;0.092;2023-09-07T02:26:30;1011.62;;;24.43;79.15
64230;BME280;50547;49.498;0.092;2023-09-07T02:28:59;1011.62;;;24.56;78.43
64230;BME280;50547;49.498;0.092;2023-09-07T02:31:28;1011.62;;;24.57;78.13
64230;BME280;50547;49.498;0.092;2023-09-07T02:33:57;1011.62;;;24.59;78.10
64230;BME280;50547;49.498;0.092;2023-09-07T02:36:26;1011.64;;;24.63;77.87
64230;BME280;50547;49.498;0.092;2023-09-07T02:38:55;1011.64;;;24.63;77.86
64230;BME280;50547;49.498;0.092;2023-09-07T02:41:25;1011.60;;;24.63;78.02
64230;BME280;50547;49.498;0.092;2023-09-07T02:43:54;1011.56;;;24.62;78.02
64230;BME280;50547;49.498;0.092;2023-09-07T02:46:23;1011.52;;;24.61;78.17
64230;BME280;50547;49.498;0.092;2023-09-07T02:48:52;1011.50;;;24.63;78.13
64230;BME280;50547;49.498;0.092;2023-09-07T02:51:21;1011.50;;;24.58;78.12
64230;BME280;50547;49.498;0.092;2023-09-07T02:53:51;1011.46;;;24.45;78.32
64230;BME280;50547;49.498;0.092;2023-09-07T02:56:20;1011.38;;;24.09;79.25
64230;BME280;50547;49.498;0.092;2023-09-07T02:58:49;1011.40;;;24.00;79.18
64230;BME280;50547;49.498;0.092;2023-09-07T03:01:18;1011.30;;;23.61;80.23
64230;BME280;50547;49.498;0.092;2023-09-07T03:03:47;1011.30;;;23.45;81.05
64230;BME280;50547;49.498;0.092;2023-09-07T03:06:17;1011.30;;;23.43;80.98
64230;BME280;50547;49.498;0.092;2023-09-07T03:08:46;1011.30;;;23.47;80.57
64230;BME280;50547;49.498;0.092;2023-09-07T03:11:15;1011.28;;;23.41;80.87
64230;BME280;50547;49.498;0.092;2023-09-07T03:13:44;1011.26;;;23.39;81.05
64230;BME280;50547;49.498;0.092;2023-09-07T03:16:13;1011.28;;;23.39;80.87
64230;BME280;50547;49.498;0.092;2023-09-07T03:18:42;1011.26;;;23.45;80.50
64230;BME280;50547;49.498;0.092;2023-09-07T03:21:12;1011.26;;;23.45;80.50
64230;BME280;50547;49.498;0.092;2023-09-07T03:23:41;1011.30;;;23.51;80.17
64230;BME280;50547;49.498;0.092;2023-09-07T03:26:10;1011.30;;;23.47;80.39
64230;BME280;50547;49.498;0.092;2023-09-07T03:28:39;1011.28;;;23.62;79.61
64230;BME280;50547;49.498;0.092;2023-09-07T03:31:09;1011.30;;;23.60;79.83
64230;BME280;50547;49.498;0.092;2023-09-07T03:33:38;1011.28;;;23.65;79.61
64230;BME280;50547;49.498;0.092;2023-09-07T03:36:07;1011.28;;;23.65;79.48
64230;BME280;50547;49.498;0.092;2023-09-07T03:38:36;1011.30;;;23.55;80.08
64230;BME280;50547;49.498;0.092;2023-09-07T03:41:05;1011.26;;;23.46;80.51
64230;BME280;50547;49.498;0.092;2023-09-07T03:43:34;1011.24;;;23.27;81.71
64230;BME280;50547;49.498;0.092;2023-09-07T03:46:03;1011.28;;;23.18;81.99
64230;BME280;50547;49.498;0.092;2023-09-07T03:48:32;1011.30;;;23.11;81.93
64230;BME280;50547;49.498;0.092;2023-09-07T03:51:05;1011.28;;;22.97;82.74
64230;BME280;50547;49.498;0.092;2023-09-07T03:53:34;1011.30;;;22.99;82.32
64230;BME280;50547;49.498;0.092;2023-09-07T03:56:04;1011.32;;;23.02;82.16
64230;BME280;50547;49.498;0.092;2023-09-07T03:58:33;1011.36;;;23.05;81.72
64230;BME280;50547;49.498;0.092;2023-09-07T04:01:02;1011.40;;;23.08;81.72
64230;BME280;50547;49.498;0.092;2023-09-07T04:03:31;1011.44;;;23.11;80.99
64230;BME280;50547;49.498;0.092;2023-09-07T04:06:00;1011.42;;;23.01;81.18
64230;BME280;50547;49.498;0.092;2023-09-07T04:08:29;1011.46;;;23.06;80.97
64230;BME280;50547;49.498;0.092;2023-09-07T04:11:02;1011.42;;;23.09;80.84
64230;BME280;50547;49.498;0.092;2023-09-07T04:13:32;1011.42;;;23.11;80.98
64230;BME280;50547;49.498;0.092;2023-09-07T04:16:01;1011.42;;;23.12;81.09
64230;BME280;50547;49.498;0.092;2023-09-07T04:18:30;1011.46;;;23.29;80.21
64230;BME280;50547;49.498;0.092;2023-09-07T04:21:04;1011.40;;;23.42;79.81
64230;BME280;50547;49.498;0.092;2023-09-07T04:23:34;1011.42;;;23.35;80.14
64230;BME280;50547;49.498;0.092;2023-09-07T04:26:05;1011.40;;;23.34;79.98
64230;BME280;50547;49.498;0.092;2023-09-07T04:28:35;1011.38;;;23.15;80.98
64230;BME280;50547;49.498;0.092;2023-09-07T04:31:05;1011.40;;;23.09;81.16
64230;BME280;50547;49.498;0.092;2023-09-07T04:33:35;1011.38;;;23.05;81.32
64230;BME280;50547;49.498;0.092;2023-09-07T04:36:08;1011.38;;;23.13;80.64
64230;BME280;50547;49.498;0.092;2023-09-07T04:38:38;1011.36;;;23.04;81.12
64230;BME280;50547;49.498;0.092;2023-09-07T04:41:07;1011.36;;;22.97;81.46
64230;BME280;50547;49.498;0.092;2023-09-07T04:43:38;1011.40;;;22.84;82.15
64230;BME280;50547;49.498;0.092;2023-09-07T04:46:08;1011.42;;;22.86;81.79
64230;BME280;50547;49.498;0.092;2023-09-07T04:48:37;1011.40;;;22.88;81.65
64230;BME280;50547;49.498;0.092;2023-09-07T04:51:08;1011.40;;;22.92;81.28
64230;BME280;50547;49.498;0.092;2023-09-07T04:53:38;1011.42;;;22.93;81.19
64230;BME280;50547;49.498;0.092;2023-09-07T04:56:08;1011.40;;;22.88;81.54
64230;BME280;50547;49.498;0.092;2023-09-07T04:58:37;1011.42;;;22.68;82.73
64230;BME280;50547;49.498;0.092;2023-09-07T05:01:08;1011.44;;;22.68;82.63
64230;BME280;50547;49.498;0.092;2023-09-07T05:03:38;1011.40;;;22.58;82.95
64230;BME280;50547;49.498;0.092;2023-09-07T05:06:07;1011.44;;;22.53;83.09
64230;BME280;50547;49.498;0.092;2023-09-07T05:08:37;1011.46;;;22.49;83.13
64230;BME280;50547;49.498;0.092;2023-09-07T05:11:06;1011.50;;;22.44;83.19
64230;BME280;50547;49.498;0.092;2023-09-07T05:13:35;1011.52;;;22.38;83.50
64230;BME280;50547;49.498;0.092;2023-09-07T05:16:04;1011.52;;;22.43;83.03
64230;BME280;50547;49.498;0.092;2023-09-07T05:18:33;1011.52;;;22.29;83.88
64230;BME280;50547;49.498;0.092;2023-09-07T05:21:11;1011.54;;;22.31;83.56
64230;BME280;50547;49.498;0.092;2023-09-07T05:23:41;1011.54;;;22.36;83.21
64230;BME280;50547;49.498;0.092;2023-09-07T05:26:10;1011.52;;;22.31;83.45
64230;BME280;50547;49.498;0.092;2023-09-07T05:28:40;1011.52;;;22.09;84.84
64230;BME280;50547;49.498;0.092;2023-09-07T05:31:09;1011.56;;;22.04;85.03
64230;BME280;50547;49.498;0.092;2023-09-07T05:33:39;1011.54;;;22.13;84.10
64230;BME280;50547;49.498;0.092;2023-09-07T05:36:08;1011.56;;;22.18;83.68
64230;BME280;50547;49.498;0.092;2023-09-07T05:38:37;1011.54;;;22.09;84.01
64230;BME280;50547;49.498;0.092;2023-09-07T05:41:07;1011.56;;;22.12;83.83
64230;BME280;50547;49.498;0.092;2023-09-07T05:43:36;1011.56;;;22.07;84.07
64230;BME280;50547;49.498;0.092;2023-09-07T05:46:05;1011.56;;;21.99;84.48
64230;BME280;50547;49.498;0.092;2023-09-07T05:48:34;1011.58;;;22.09;83.87
64230;BME280;50547;49.498;0.092;2023-09-07T05:51:03;1011.60;;;22.20;83.37
64230;BME280;50547;49.498;0.092;2023-09-07T05:53:32;1011.58;;;22.13;83.48
64230;BME280;50547;49.498;0.092;2023-09-07T05:56:02;1011.52;;;22.06;83.37
64230;BME280;50547;49.498;0.092;2023-09-07T05:58:31;1011.56;;;22.05;83.24
64230;BME280;50547;49.498;0.092;2023-09-07T06:01:00;1011.50;;;22.11;82.53
64230;BME280;50547;49.498;0.092;2023-09-07T06:03:29;1011.50;;;22.17;82.20
64230;BME280;50547;49.498;0.092;2023-09-07T06:05:58;1011.48;;;22.20;81.87
64230;BME280;50547;49.498;0.092;2023-09-07T06:08:27;1011.50;;;22.22;81.65
64230;BME280;50547;49.498;0.092;2023-09-07T06:10:56;1011.48;;;22.33;81.27
64230;BME280;50547;49.498;0.092;2023-09-07T06:13:26;1011.44;;;22.34;80.79
64230;BME280;50547;49.498;0.092;2023-09-07T06:15:55;1011.48;;;22.38;80.36
64230;BME280;50547;49.498;0.092;2023-09-07T06:18:24;1011.44;;;22.45;79.91
64230;BME280;50547;49.498;0.092;2023-09-07T06:20:53;1011.44;;;22.53;79.65
64230;BME280;50547;49.498;0.092;2023-09-07T06:23:23;1011.40;;;22.52;79.56
64230;BME280;50547;49.498;0.092;2023-09-07T06:25:52;1011.46;;;22.52;79.52
64230;BME280;50547;49.498;0.092;2023-09-07T06:28:21;1011.42;;;22.71;78.32
64230;BME280;50547;49.498;0.092;2023-09-07T06:30:50;1011.42;;;22.77;78.23
64230;BME280;50547;49.498;0.092;2023-09-07T06:33:19;1011.42;;;22.90;77.71
64230;BME280;50547;49.498;0.092;2023-09-07T06:35:48;1011.38;;;22.95;77.58
64230;BME280;50547;49.498;0.092;2023-09-07T06:38:17;1011.44;;;22.95;77.51
64230;BME280;50547;49.498;0.092;2023-09-07T06:40:47;1011.48;;;23.09;77.07
64230;BME280;50547;49.498;0.092;2023-09-07T06:43:17;1011.52;;;23.17;76.91
64230;BME280;50547;49.498;0.092;2023-09-07T06:45:46;1011.58;;;23.31;76.28
64230;BME280;50547;49.498;0.092;2023-09-07T06:48:15;1011.58;;;23.25;76.53
64230;BME280;50547;49.498;0.092;2023-09-07T06:50:44;1011.56;;;23.31;75.99
64230;BME280;50547;49.498;0.092;2023-09-07T06:53:13;1011.54;;;23.35;76.00
64230;BME280;50547;49.498;0.092;2023-09-07T06:55:42;1011.54;;;23.52;74.99
64230;BME280;50547;49.498;0.092;2023-09-07T06:58:11;1011.52;;;23.58;74.67
64230;BME280;50547;49.498;0.092;2023-09-07T07:00:40;1011.56;;;23.55;74.56
64230;BME280;50547;49.498;0.092;2023-09-07T07:03:09;1011.56;;;23.60;74.57
64230;BME280;50547;49.498;0.092;2023-09-07T07:05:38;1011.50;;;23.66;73.97
64230;BME280;50547;49.498;0.092;2023-09-07T07:08:09;1011.52;;;23.70;73.83
64230;BME280;50547;49.498;0.092;2023-09-07T07:10:38;1011.46;;;23.74;73.71
64230;BME280;50547;49.498;0.092;2023-09-07T07:13:07;1011.48;;;23.64;74.04
64230;BME280;50547;49.498;0.092;2023-09-07T07:15:36;1011.44;;;23.64;74.19
64230;BME280;50547;49.498;0.092;2023-09-07T07:18:05;1011.48;;;23.69;73.71
64230;BME280;50547;49.498;0.092;2023-09-07T07:20:34;1011.44;;;23.69;73.48
64230;BME280;50547;49.498;0.092;2023-09-07T07:23:04;1011.42;;;23.63;73.62
64230;BME280;50547;49.498;0.092;2023-09-07T07:25:33;1011.50;;;23.75;73.15
64230;BME280;50547;49.498;0.092;2023-09-07T07:28:04;1011.44;;;23.80;72.89
64230;BME280;50547;49.498;0.092;2023-09-07T07:30:33;1011.46;;;23.81;72.99
64230;BME280;50547;49.498;0.092;2023-09-07T07:33:04;1011.44;;;23.85;72.64
64230;BME280;50547;49.498;0.092;2023-09-07T07:35:34;1011.50;;;23.84;72.53
64230;BME280;50547;49.498;0.092;2023-09-07T07:38:04;1011.56;;;23.91;72.13
64230;BME280;50547;49.498;0.092;2023-09-07T07:40:33;1011.52;;;23.97;71.64
64230;BME280;50547;49.498;0.092;2023-09-07T07:43:03;1011.60;;;24.02;71.24
64230;BME280;50547;49.498;0.092;2023-09-07T07:45:32;1011.67;;;24.23;70.62
64230;BME280;50547;49.498;0.092;2023-09-07T07:48:01;1011.64;;;24.46;69.44
64230;BME280;50547;49.498;0.092;2023-09-07T07:50:30;1011.71;;;24.60;68.60
64230;BME280;50547;49.498;0.092;2023-09-07T07:52:59;1011.71;;;24.73;68.10
64230;BME280;50547;49.498;0.092;2023-09-07T07:55:29;1011.71;;;24.89;67.27
64230;BME280;50547;49.498;0.092;2023-09-07T07:57:54;1011.77;;;24.91;67.37
64230;BME280;50547;49.498;0.092;2023-09-07T08:00:24;1011.75;;;25.04;67.13
64230;BME280;50547;49.498;0.092;2023-09-07T08:02:53;1011.75;;;25.02;66.78
64230;BME280;50547;49.498;0.092;2023-09-07T08:05:19;1011.64;;;25.13;66.63
64230;BME280;50547;49.498;0.092;2023-09-07T08:07:48;1011.75;;;25.31;65.96
64230;BME280;50547;49.498;0.092;2023-09-07T08:10:16;1011.77;;;25.40;65.62
64230;BME280;50547;49.498;0.092;2023-09-07T08:12:45;1011.77;;;25.51;65.12
64230;BME280;50547;49.498;0.092;2023-09-07T08:15:15;1011.75;;;25.81;64.18
64230;BME280;50547;49.498;0.092;2023-09-07T08:17:41;1011.81;;;26.13;62.42
64230;BME280;50547;49.498;0.092;2023-09-07T08:20:07;1011.81;;;26.21;62.48
64230;BME280;50547;49.498;0.092;2023-09-07T08:22:36;1011.87;;;26.46;61.26
64230;BME280;50547;49.498;0.092;2023-09-07T08:25:06;1011.89;;;26.55;61.00
64230;BME280;50547;49.498;0.092;2023-09-07T08:27:33;1011.85;;;26.62;59.70
64230;BME280;50547;49.498;0.092;2023-09-07T08:30:03;1011.85;;;26.84;59.42
64230;BME280;50547;49.498;0.092;2023-09-07T08:32:32;1011.81;;;27.10;58.35
64230;BME280;50547;49.498;0.092;2023-09-07T08:34:58;1011.87;;;27.19;58.19
64230;BME280;50547;49.498;0.092;2023-09-07T08:37:27;1011.85;;;27.17;57.99
64230;BME280;50547;49.498;0.092;2023-09-07T08:39:57;1011.81;;;27.18;58.14
64230;BME280;50547;49.498;0.092;2023-09-07T08:42:22;1011.85;;;27.38;57.63
64230;BME280;50547;49.498;0.092;2023-09-07T08:44:49;1011.87;;;27.23;58.02
64230;BME280;50547;49.498;0.092;2023-09-07T08:47:19;1011.85;;;27.33;57.48
64230;BME280;50547;49.498;0.092;2023-09-07T08:49:47;1011.79;;;27.48;56.67
64230;BME280;50547;49.498;0.092;2023-09-07T08:52:17;1011.75;;;27.53;56.47
64230;BME280;50547;49.498;0.092;2023-09-07T08:54:48;1011.77;;;27.57;56.12
64230;BME280;50547;49.498;0.092;2023-09-07T08:57:18;1011.81;;;27.81;55.38
64230;BME280;50547;49.498;0.092;2023-09-07T08:59:49;1011.77;;;28.05;54.49
64230;BME280;50547;49.498;0.092;2023-09-07T09:02:15;1011.79;;;28.05;54.46
64230;BME280;50547;49.498;0.092;2023-09-07T09:04:59;1011.79;;;28.39;53.52
64230;BME280;50547;49.498;0.092;2023-09-07T09:07:28;1011.75;;;28.52;53.88
64230;BME280;50547;49.498;0.092;2023-09-07T09:10:06;1011.87;;;28.88;52.43
64230;BME280;50547;49.498;0.092;2023-09-07T09:12:35;1011.87;;;29.23;51.43
64230;BME280;50547;49.498;0.092;2023-09-07T09:15:13;1011.91;;;29.35;50.88
64230;BME280;50547;49.498;0.092;2023-09-07T09:17:38;1011.93;;;29.77;50.22
64230;BME280;50547;49.498;0.092;2023-09-07T09:20:20;1011.91;;;29.71;50.13
64230;BME280;50547;49.498;0.092;2023-09-07T09:22:52;1011.89;;;29.73;50.52
64230;BME280;50547;49.498;0.092;2023-09-07T09:25:22;1011.81;;;29.64;51.60
64230;BME280;50547;49.498;0.092;2023-09-07T09:27:51;1011.81;;;29.79;50.33
64230;BME280;50547;49.498;0.092;2023-09-07T09:30:20;1011.89;;;30.06;49.71
64230;BME280;50547;49.498;0.092;2023-09-07T09:32:48;1011.91;;;30.44;48.15
64230;BME280;50547;49.498;0.092;2023-09-07T09:35:17;1011.89;;;30.61;47.66
64230;BME280;50547;49.498;0.092;2023-09-07T09:37:47;1011.95;;;31.03;47.15
64230;BME280;50547;49.498;0.092;2023-09-07T09:40:18;1011.97;;;31.05;46.92
64230;BME280;50547;49.498;0.092;2023-09-07T09:42:47;1011.97;;;31.34;46.62
64230;BME280;50547;49.498;0.092;2023-09-07T09:45:23;1011.95;;;31.43;46.21
64230;BME280;50547;49.498;0.092;2023-09-07T09:47:55;1011.99;;;31.40;46.33
64230;BME280;50547;49.498;0.092;2023-09-07T09:50:24;1011.97;;;31.67;46.25
64230;BME280;50547;49.498;0.092;2023-09-07T09:52:54;1011.91;;;31.46;46.96
64230;BME280;50547;49.498;0.092;2023-09-07T09:55:24;1011.89;;;31.28;47.50
64230;BME280;50547;49.498;0.092;2023-09-07T09:57:53;1011.85;;;31.33;47.48
64230;BME280;50547;49.498;0.092;2023-09-07T10:00:22;1011.83;;;31.22;47.83
64230;BME280;50547;49.498;0.092;2023-09-07T10:02:59;1011.81;;;31.35;46.74
64230;BME280;50547;49.498;0.092;2023-09-07T10:05:30;1011.79;;;31.37;47.22
64230;BME280;50547;49.498;0.092;2023-09-07T10:08:02;1011.85;;;31.75;46.05
64230;BME280;50547;49.498;0.092;2023-09-07T10:10:33;1011.83;;;31.84;45.94
64230;BME280;50547;49.498;0.092;2023-09-07T10:13:01;1011.87;;;31.90;45.97
64230;BME280;50547;49.498;0.092;2023-09-07T10:15:33;1011.81;;;32.06;45.28
64230;BME280;50547;49.498;0.092;2023-09-07T10:18:03;1011.89;;;31.99;45.66
64230;BME280;50547;49.498;0.092;2023-09-07T10:20:50;1011.85;;;31.93;46.07
64230;BME280;50547;49.498;0.092;2023-09-07T10:23:20;1011.83;;;32.21;45.62
64230;BME280;50547;49.498;0.092;2023-09-07T10:25:50;1011.83;;;32.69;43.79
64230;BME280;50547;49.498;0.092;2023-09-07T10:28:21;1011.81;;;32.93;43.48
64230;BME280;50547;49.498;0.092;2023-09-07T10:31:01;1011.89;;;33.24;42.86
64230;BME280;50547;49.498;0.092;2023-09-07T10:33:31;1011.81;;;33.30;43.10
64230;BME280;50547;49.498;0.092;2023-09-07T10:36:00;1011.79;;;33.27;42.85
64230;BME280;50547;49.498;0.092;2023-09-07T10:38:31;1011.79;;;33.28;42.74
64230;BME280;50547;49.498;0.092;2023-09-07T10:41:01;1011.75;;;33.28;41.61
64230;BME280;50547;49.498;0.092;2023-09-07T10:43:32;1011.73;;;33.42;41.27
64230;BME280;50547;49.498;0.092;2023-09-07T10:46:01;1011.71;;;33.28;42.12
64230;BME280;50547;49.498;0.092;2023-09-07T10:48:31;1011.69;;;33.19;42.07
64230;BME280;50547;49.498;0.092;2023-09-07T10:51:00;1011.71;;;33.43;41.34
64230;BME280;50547;49.498;0.092;2023-09-07T10:53:30;1011.75;;;33.64;40.53
64230;BME280;50547;49.498;0.092;2023-09-07T10:56:05;1011.69;;;33.91;39.91
64230;BME280;50547;49.498;0.092;2023-09-07T10:58:36;1011.71;;;33.84;38.60
64230;BME280;50547;49.498;0.092;2023-09-07T11:01:05;1011.67;;;33.74;39.70
64230;BME280;50547;49.498;0.092;2023-09-07T11:03:34;1011.65;;;33.72;39.03
64230;BME280;50547;49.498;0.092;2023-09-07T11:06:07;1011.67;;;34.02;36.91
64230;BME280;50547;49.498;0.092;2023-09-07T11:08:37;1011.67;;;34.14;37.16
64230;BME280;50547;49.498;0.092;2023-09-07T11:11:04;1011.73;;;34.30;36.17
64230;BME280;50547;49.498;0.092;2023-09-07T11:13:33;1011.69;;;34.26;36.08
64230;BME280;50547;49.498;0.092;2023-09-07T11:16:02;1011.67;;;34.26;36.14
64230;BME280;50547;49.498;0.092;2023-09-07T11:18:33;1011.65;;;34.13;36.18
64230;BME280;50547;49.498;0.092;2023-09-07T11:21:02;1011.67;;;34.33;35.58
64230;BME280;50547;49.498;0.092;2023-09-07T11:23:31;1011.67;;;34.54;35.58
64230;BME280;50547;49.498;0.092;2023-09-07T11:26:00;1011.65;;;34.59;35.31
64230;BME280;50547;49.498;0.092;2023-09-07T11:28:32;1011.67;;;34.50;34.15
64230;BME280;50547;49.498;0.092;2023-09-07T11:31:01;1011.64;;;34.21;35.84
64230;BME280;50547;49.498;0.092;2023-09-07T11:33:32;1011.64;;;34.35;35.20
64230;BME280;50547;49.498;0.092;2023-09-07T11:36:16;1011.56;;;34.49;35.33
64230;BME280;50547;49.498;0.092;2023-09-07T11:38:45;1011.54;;;34.37;36.07
64230;BME280;50547;49.498;0.092;2023-09-07T11:41:14;1011.48;;;34.51;36.12
64230;BME280;50547;49.498;0.092;2023-09-07T11:43:43;1011.44;;;34.73;35.77
64230;BME280;50547;49.498;0.092;2023-09-07T11:46:12;1011.46;;;34.94;35.59
64230;BME280;50547;49.498;0.092;2023-09-07T11:48:41;1011.44;;;34.97;35.70
64230;BME280;50547;49.498;0.092;2023-09-07T11:51:10;1011.46;;;35.06;35.18
64230;BME280;50547;49.498;0.092;2023-09-07T11:53:39;1011.50;;;35.25;35.31
64230;BME280;50547;49.498;0.092;2023-09-07T11:56:08;1011.52;;;35.55;34.93
64230;BME280;50547;49.498;0.092;2023-09-07T11:58:35;1011.52;;;35.78;33.72
64230;BME280;50547;49.498;0.092;2023-09-07T12:01:04;1011.50;;;35.83;34.27
64230;BME280;50547;49.498;0.092;2023-09-07T12:03:33;1011.50;;;35.88;34.52
64230;BME280;50547;49.498;0.092;2023-09-07T12:06:02;1011.44;;;36.19;34.26
64230;BME280;50547;49.498;0.092;2023-09-07T12:08:31;1011.40;;;36.34;34.11
64230;BME280;50547;49.498;0.092;2023-09-07T12:11:00;1011.36;;;36.41;34.38
64230;BME280;50547;49.498;0.092;2023-09-07T12:13:30;1011.26;;;36.48;34.20
64230;BME280;50547;49.498;0.092;2023-09-07T12:15:56;1011.26;;;36.30;36.26
64230;BME280;50547;49.498;0.092;2023-09-07T12:18:26;1011.24;;;36.36;35.52
64230;BME280;50547;49.498;0.092;2023-09-07T12:20:55;1011.26;;;36.43;35.14
64230;BME280;50547;49.498;0.092;2023-09-07T12:23:24;1011.20;;;36.44;36.55
64230;BME280;50547;49.498;0.092;2023-09-07T12:25:53;1011.15;;;35.47;40.79
64230;BME280;50547;49.498;0.092;2023-09-07T12:28:22;1011.09;;;35.16;41.46
64230;BME280;50547;49.498;0.092;2023-09-07T12:30:51;1011.11;;;35.17;41.45
64230;BME280;50547;49.498;0.092;2023-09-07T12:33:21;1011.15;;;34.63;41.52
64230;BME280;50547;49.498;0.092;2023-09-07T12:35:50;1011.11;;;34.19;42.50
64230;BME280;50547;49.498;0.092;2023-09-07T12:38:25;1011.09;;;34.42;42.94
64230;BME280;50547;49.498;0.092;2023-09-07T12:40:55;1011.07;;;34.46;43.41
64230;BME280;50547;49.498;0.092;2023-09-07T12:43:24;1011.13;;;34.20;42.93
64230;BME280;50547;49.498;0.092;2023-09-07T12:45:53;1011.15;;;34.50;40.68
64230;BME280;50547;49.498;0.092;2023-09-07T12:48:22;1011.09;;;34.27;41.34
64230;BME280;50547;49.498;0.092;2023-09-07T12:50:52;1011.09;;;34.63;40.68
64230;BME280;50547;49.498;0.092;2023-09-07T12:53:21;1011.17;;;35.01;39.09
64230;BME280;50547;49.498;0.092;2023-09-07T12:55:51;1011.11;;;35.17;39.23
64230;BME280;50547;49.498;0.092;2023-09-07T12:58:20;1011.15;;;35.47;39.11
64230;BME280;50547;49.498;0.092;2023-09-07T13:00:49;1010.99;;;34.73;40.89
64230;BME280;50547;49.498;0.092;2023-09-07T13:03:19;1010.97;;;34.72;41.16
64230;BME280;50547;49.498;0.092;2023-09-07T13:05:48;1011.03;;;34.92;40.02
64230;BME280;50547;49.498;0.092;2023-09-07T13:08:18;1011.01;;;34.96;40.34
64230;BME280;50547;49.498;0.092;2023-09-07T13:10:47;1010.95;;;35.36;39.36
64230;BME280;50547;49.498;0.092;2023-09-07T13:13:16;1011.01;;;35.69;38.56
64230;BME280;50547;49.498;0.092;2023-09-07T13:15:45;1010.97;;;36.07;37.76
64230;BME280;50547;49.498;0.092;2023-09-07T13:18:14;1010.95;;;36.38;37.98
64230;BME280;50547;49.498;0.092;2023-09-07T13:20:43;1011.01;;;37.12;36.06
64230;BME280;50547;49.498;0.092;2023-09-07T13:23:12;1011.07;;;37.53;35.02